PWSweather.com
Personal Weather Stations
Station Observations
WISCHPK61
Green Bay Schmitt Park, Green Bay, WI 54311

Green Bay Schmitt ParkGreen Bay, WI 54311

Lat: 44.514277, Lon: -87.935067

Elevation: 735

Station Type: Acu Rite Pro Weather Center model 02032C

http://greenbayweathercam.com

High Low Average
Temperature 56.1°F13.4°C 27.0°F-2.8°C 38.6°F3.7°C
Dew Point 55.8°F13.2°C 21.4°F-5.9°C 36.2°F2.3°C
Winds 2.3 mph 3.7 kmh Calm Calm Calm SSWCalm SSW
Wind Gusts 6.9 mph11.1 kmh -- --
Humidity 99% 62% 92%
Pressure 29.61 in1002.7 mb 29.40 in995.6 mb -
Precipitation 0.00 in0.0 mm - -
Hour Temp Dew Point Humidity Winds Wind Gusts Pressure Precip Precip Rate Daily Precip Total
12:00 AM 29.7°F-1.3°C 24.0°F-4.4°C 79% Calm Calm -- 29.59 in1002.0 mb - 0.00 in0.0 mm 0.00 in0.0 mm
01:00 AM 29.7°F-1.3°C 29.5°F-1.4°C 99% Calm Calm -- 29.59 in1002.0 mb - 0.00 in0.0 mm 0.00 in0.0 mm
02:00 AM 30.4°F-0.9°C 25.6°F-3.6°C 82% Calm Calm -- 29.59 in1002.0 mb - 0.00 in0.0 mm 0.00 in0.0 mm
03:00 AM 30.7°F-0.7°C 30.4°F-0.9°C 99% Calm Calm -- 29.59 in1002.0 mb - 0.00 in0.0 mm 0.00 in0.0 mm
04:00 AM 29.8°F-1.2°C 23.8°F-4.6°C 78% Calm Calm -- 29.58 in1001.7 mb - 0.00 in0.0 mm 0.00 in0.0 mm
05:00 AM 28.8°F-1.8°C 28.6°F-1.9°C 99% Calm Calm -- 29.58 in1001.7 mb - 0.00 in0.0 mm 0.00 in0.0 mm
06:00 AM 27.7°F-2.4°C 27.5°F-2.5°C 99% Calm Calm -- 29.59 in1002.0 mb - 0.00 in0.0 mm 0.00 in0.0 mm
07:00 AM 27.0°F-2.8°C 21.4°F-5.9°C 79% Calm Calm -- 29.59 in1002.0 mb - 0.00 in0.0 mm 0.00 in0.0 mm
08:00 AM 28.1°F-2.2°C 27.8°F-2.3°C 99% Calm Calm -- 29.60 in1002.4 mb - 0.00 in0.0 mm 0.00 in0.0 mm
09:00 AM 34.4°F1.3°C 34.1°F1.2°C 99% Calm Calm -- 29.60 in1002.4 mb - 0.00 in0.0 mm 0.00 in0.0 mm
10:00 AM 40.0°F4.4°C 39.8°F4.3°C 99% Calm Calm 1.2 mph1.9 kmh 29.61 in1002.7 mb - 0.00 in0.0 mm 0.00 in0.0 mm
11:00 AM 45.0°F7.2°C 44.7°F7.1°C 99% Calm Calm -- 29.61 in1002.7 mb - 0.00 in0.0 mm 0.00 in0.0 mm
12:00 PM 49.6°F9.8°C 49.3°F9.6°C 99% Calm Calm -- 29.60 in1002.4 mb - 0.00 in0.0 mm 0.00 in0.0 mm
01:00 PM 51.9°F11.1°C 51.6°F10.9°C 99% Calm Calm -- 29.59 in1002.0 mb - 0.00 in0.0 mm 0.00 in0.0 mm
02:00 PM 56.1°F13.4°C 55.8°F13.2°C 99% Calm Calm -- 29.57 in1001.4 mb - 0.00 in0.0 mm 0.00 in0.0 mm
03:00 PM 50.7°F10.4°C 50.4°F10.2°C 99% Calm Calm -- 29.55 in1000.7 mb - 0.00 in0.0 mm 0.00 in0.0 mm
04:00 PM 47.0°F8.3°C 34.6°F1.4°C 62% Calm Calm -- 29.53 in1000.0 mb - 0.00 in0.0 mm 0.00 in0.0 mm
05:00 PM 45.9°F7.7°C 37.4°F3.0°C 72% Calm Calm -- 29.51 in999.3 mb - 0.00 in0.0 mm 0.00 in0.0 mm
06:00 PM 43.9°F6.6°C 43.6°F6.4°C 99% 2.3 mph SSW3.7 kmh SSW 6.9 mph11.1 kmh 29.47 in998.0 mb - 0.00 in0.0 mm 0.00 in0.0 mm
07:00 PM 41.5°F5.3°C 41.2°F5.1°C 99% Calm Calm -- 29.46 in997.6 mb - 0.00 in0.0 mm 0.00 in0.0 mm
08:00 PM 38.8°F3.8°C 27.7°F-2.4°C 64% Calm Calm -- 29.46 in997.6 mb - 0.00 in0.0 mm 0.00 in0.0 mm
09:00 PM 37.8°F3.2°C 37.5°F3.1°C 99% Calm Calm -- 29.45 in997.3 mb - 0.00 in0.0 mm 0.00 in0.0 mm
10:00 PM 37.2°F2.9°C 31.3°F-0.4°C 79% Calm Calm -- 29.44 in997.0 mb - 0.00 in0.0 mm 0.00 in0.0 mm
11:00 PM 37.6°F3.1°C 37.3°F2.9°C 99% Calm Calm -- 29.42 in996.3 mb - 0.00 in0.0 mm 0.00 in0.0 mm